createdAt,value
2023-03-02T00:02:02.285Z,0.01
2023-03-02T00:04:37.178Z,-0.09
2023-03-02T00:07:10.050Z,-0.13
2023-03-02T00:09:39.823Z,-0.07
2023-03-02T00:12:09.409Z,-0.04
2023-03-02T00:14:38.251Z,0.01
2023-03-02T00:17:10.600Z,-0.06
2023-03-02T00:19:39.478Z,-0.05
2023-03-02T00:22:10.078Z,-0.10
2023-03-02T00:24:39.254Z,-0.12
2023-03-02T00:27:08.109Z,0.02
2023-03-02T00:29:36.489Z,-0.09
2023-03-02T00:32:06.266Z,-0.15
2023-03-02T00:34:35.981Z,-0.12
2023-03-02T00:37:04.787Z,-0.07
2023-03-02T00:39:33.150Z,-0.08
2023-03-02T00:42:01.743Z,-0.07
2023-03-02T00:44:30.375Z,-0.15
2023-03-02T00:46:58.718Z,-0.27
2023-03-02T00:49:27.463Z,-0.23
2023-03-02T00:51:57.560Z,-0.30
2023-03-02T00:54:25.925Z,-0.11
2023-03-02T00:56:54.719Z,-0.15
2023-03-02T00:59:27.451Z,-0.20
2023-03-02T01:02:09.209Z,-0.15
2023-03-02T01:04:41.220Z,-0.13
2023-03-02T01:07:14.827Z,-0.10
2023-03-02T01:09:46.604Z,-0.12
2023-03-02T01:12:15.790Z,-0.07
2023-03-02T01:14:48.124Z,-0.10
2023-03-02T01:17:16.958Z,-0.14
2023-03-02T01:19:45.539Z,-0.13
2023-03-02T01:22:16.188Z,-0.11
2023-03-02T01:24:45.089Z,-0.17
2023-03-02T01:27:13.476Z,-0.21
2023-03-02T01:29:41.811Z,-0.12
2023-03-02T01:32:10.423Z,-0.14
2023-03-02T01:34:39.590Z,-0.15
2023-03-02T01:37:08.172Z,-0.26
2023-03-02T01:39:37.953Z,-0.35
2023-03-02T01:42:06.793Z,-0.45
2023-03-02T01:44:44.818Z,-0.53
2023-03-02T01:47:21.419Z,-0.51
2023-03-02T01:50:02.829Z,-0.33
2023-03-02T01:52:38.953Z,-0.35
2023-03-02T01:55:17.033Z,-0.43
2023-03-02T01:57:53.358Z,-0.61
2023-03-02T02:00:28.181Z,-0.63
2023-03-02T02:03:08.847Z,-0.62
2023-03-02T02:05:42.326Z,-0.77
2023-03-02T02:08:11.693Z,-0.70
2023-03-02T02:10:42.974Z,-0.69
2023-03-02T02:13:12.208Z,-0.76
2023-03-02T02:15:42.272Z,-0.80
2023-03-02T02:18:11.271Z,-0.80
2023-03-02T02:20:45.359Z,-0.83
2023-03-02T02:23:28.671Z,-0.95
2023-03-02T02:26:18.341Z,-0.97
2023-03-02T02:28:57.830Z,-1.08
2023-03-02T02:31:37.528Z,-1.20
2023-03-02T02:34:14.715Z,-1.25
2023-03-02T02:36:49.109Z,-1.25
2023-03-02T02:39:25.400Z,-1.30
2023-03-02T02:42:01.604Z,-1.38
2023-03-02T02:44:32.229Z,-1.34
2023-03-02T02:47:01.870Z,-1.34
2023-03-02T02:49:35.391Z,-1.35
2023-03-02T02:52:06.679Z,-1.36
2023-03-02T02:54:38.104Z,-1.31
2023-03-02T02:57:10.396Z,-1.27
2023-03-02T02:59:46.277Z,-1.15
2023-03-02T03:02:20.810Z,-1.13
2023-03-02T03:04:50.008Z,-0.83
2023-03-02T03:07:23.333Z,-0.76
2023-03-02T03:10:02.629Z,-0.90
2023-03-02T03:12:34.927Z,-0.94
2023-03-02T03:15:05.582Z,-0.73
2023-03-02T03:17:33.968Z,-0.74
2023-03-02T03:20:07.681Z,-0.77
2023-03-02T03:22:39.932Z,-0.71
2023-03-02T03:25:15.636Z,-0.72
2023-03-02T03:27:48.606Z,-0.78
2023-03-02T03:30:18.956Z,-0.65
2023-03-02T03:32:48.334Z,-0.66
2023-03-02T03:35:18.058Z,-0.67
2023-03-02T03:37:48.531Z,-0.69
2023-03-02T03:40:17.862Z,-0.67
2023-03-02T03:42:48.908Z,-0.52
2023-03-02T03:45:17.379Z,-0.51
2023-03-02T03:47:46.109Z,-0.56
2023-03-02T03:50:14.903Z,-0.51
2023-03-02T03:52:44.917Z,-0.50
2023-03-02T03:55:21.410Z,-0.55
2023-03-02T03:57:52.677Z,-0.43
2023-03-02T04:00:22.979Z,-0.43
2023-03-02T04:02:57.438Z,-0.44
2023-03-02T04:05:29.163Z,-0.50
2023-03-02T04:08:02.153Z,-0.63
2023-03-02T04:10:31.805Z,-0.63
2023-03-02T04:13:01.807Z,-0.59
2023-03-02T04:15:30.766Z,-0.49
2023-03-02T04:18:01.491Z,-0.43
2023-03-02T04:20:30.771Z,-0.39
2023-03-02T04:22:59.890Z,-0.39
2023-03-02T04:25:31.293Z,-0.54
2023-03-02T04:28:09.933Z,-0.63
2023-03-02T04:30:40.880Z,-0.61
2023-03-02T04:33:10.151Z,-0.63
2023-03-02T04:35:39.162Z,-0.56
2023-03-02T04:38:07.929Z,-0.51
2023-03-02T04:40:36.404Z,-0.47
2023-03-02T04:43:04.733Z,-0.56
2023-03-02T04:45:34.897Z,-0.48
2023-03-02T04:48:03.970Z,-0.33
2023-03-02T04:50:32.689Z,-0.37
2023-03-02T04:53:01.118Z,-0.43
2023-03-02T04:55:29.919Z,-0.40
2023-03-02T04:57:58.516Z,-0.37
2023-03-02T05:00:28.952Z,-0.41
2023-03-02T05:02:58.987Z,-0.43
2023-03-02T05:05:28.198Z,-0.45
2023-03-02T05:07:58.605Z,-0.46
2023-03-02T05:10:29.266Z,-0.54
2023-03-02T05:13:02.809Z,-0.48
2023-03-02T05:15:35.927Z,-0.40
2023-03-02T05:18:08.796Z,-0.44
2023-03-02T05:20:38.348Z,-0.41
2023-03-02T05:23:09.865Z,-0.45
2023-03-02T05:25:39.614Z,-0.36
2023-03-02T05:28:07.982Z,-0.39
2023-03-02T05:30:37.885Z,-0.33
2023-03-02T05:33:08.178Z,-0.29
2023-03-02T05:35:37.150Z,-0.26
2023-03-02T05:38:06.660Z,-0.27
2023-03-02T05:40:35.617Z,-0.26
2023-03-02T05:43:04.420Z,-0.21
2023-03-02T05:45:35.890Z,-0.07
2023-03-02T05:48:05.644Z,0.01
2023-03-02T05:50:35.700Z,-0.08
2023-03-02T05:53:04.153Z,-0.07
2023-03-02T05:55:36.860Z,-0.09
2023-03-02T05:58:06.134Z,-0.16
2023-03-02T06:00:34.568Z,-0.09
2023-03-02T06:03:06.083Z,-0.08
2023-03-02T06:05:36.744Z,-0.10
2023-03-02T06:08:06.198Z,-0.11
2023-03-02T06:10:35.221Z,-0.14
2023-03-02T06:13:03.656Z,-0.20
2023-03-02T06:15:31.944Z,-0.13
2023-03-02T06:18:00.291Z,-0.07
2023-03-02T06:20:28.595Z,-0.03
2023-03-02T06:22:58.525Z,-0.04
2023-03-02T06:25:27.227Z,0.13
2023-03-02T06:27:55.584Z,0.17
2023-03-02T06:30:27.921Z,0.32
2023-03-02T06:32:56.673Z,0.42
2023-03-02T06:35:25.331Z,0.48
2023-03-02T06:37:53.685Z,0.51
2023-03-02T06:40:23.524Z,0.67
2023-03-02T06:42:52.053Z,0.80
2023-03-02T06:45:20.573Z,0.93
2023-03-02T06:47:48.850Z,1.12
2023-03-02T06:50:17.522Z,1.31
2023-03-02T06:52:45.890Z,1.47
2023-03-02T06:55:14.268Z,1.71
2023-03-02T06:57:44.136Z,1.85
2023-03-02T07:00:17.323Z,2.18
2023-03-02T07:02:46.307Z,2.43
2023-03-02T07:05:14.906Z,2.70
2023-03-02T07:07:43.644Z,2.96
2023-03-02T07:10:13.649Z,3.12
2023-03-02T07:12:44.052Z,3.41
2023-03-02T07:15:14.530Z,3.71
2023-03-02T07:17:45.121Z,3.91
2023-03-02T07:20:16.428Z,4.18
2023-03-02T07:22:46.132Z,4.59
2023-03-02T07:25:15.214Z,4.92
2023-03-02T07:27:44.912Z,5.05
2023-03-02T07:30:15.425Z,5.18
2023-03-02T07:32:43.797Z,5.48
2023-03-02T07:35:12.088Z,5.78
2023-03-02T07:37:41.093Z,5.60
2023-03-02T07:40:12.432Z,5.72
2023-03-02T07:42:41.339Z,5.88
2023-03-02T07:45:15.563Z,6.11
2023-03-02T07:47:43.985Z,6.71
2023-03-02T07:50:13.425Z,7.04
2023-03-02T07:52:41.854Z,7.31
2023-03-02T07:55:11.433Z,7.02
2023-03-02T07:57:39.755Z,7.00
2023-03-02T08:00:11.984Z,7.29
2023-03-02T08:02:41.816Z,7.61
2023-03-02T08:05:12.189Z,7.42
2023-03-02T08:07:41.107Z,7.77
2023-03-02T08:10:12.157Z,8.20
2023-03-02T08:12:40.560Z,8.22
2023-03-02T08:15:13.192Z,8.19
2023-03-02T08:17:41.559Z,8.22
2023-03-02T08:20:11.629Z,8.61
2023-03-02T08:22:40.095Z,8.27
2023-03-02T08:25:09.473Z,8.22
2023-03-02T08:27:38.275Z,8.33
2023-03-02T08:30:09.522Z,8.85
2023-03-02T08:32:39.766Z,9.05
2023-03-02T08:35:09.613Z,9.47
2023-03-02T08:37:37.913Z,9.09
2023-03-02T08:40:08.135Z,9.61
2023-03-02T08:42:36.468Z,9.70
2023-03-02T08:45:05.775Z,9.18
2023-03-02T08:47:34.144Z,9.39
2023-03-02T08:50:04.277Z,10.18
2023-03-02T08:52:35.252Z,9.93
2023-03-02T08:55:04.376Z,10.08
2023-03-02T08:57:34.788Z,10.44
2023-03-02T09:00:03.397Z,10.74
2023-03-02T09:02:31.757Z,10.90
2023-03-02T09:05:00.173Z,10.69
2023-03-02T09:07:33.136Z,10.35
2023-03-02T09:10:01.911Z,10.08
2023-03-02T09:12:30.372Z,10.38
2023-03-02T09:14:58.815Z,10.72
2023-03-02T09:17:27.224Z,10.51
2023-03-02T09:19:55.489Z,11.14
2023-03-02T09:22:23.896Z,11.12
2023-03-02T09:24:53.988Z,10.95
2023-03-02T09:27:22.357Z,10.86
2023-03-02T09:29:50.734Z,11.16
2023-03-02T09:32:19.141Z,11.26
2023-03-02T09:34:47.799Z,11.56
2023-03-02T09:37:16.256Z,11.30
2023-03-02T09:39:44.713Z,12.28
2023-03-02T09:42:43.509Z,11.66
2023-03-02T09:45:32.878Z,11.97
2023-03-02T09:48:20.870Z,11.48
2023-03-02T09:51:03.279Z,11.56
2023-03-02T09:53:47.838Z,12.21
2023-03-02T09:56:19.830Z,12.19
2023-03-02T09:59:00.298Z,11.57
2023-03-02T10:01:40.467Z,12.56
2023-03-02T10:04:25.473Z,12.74
2023-03-02T10:07:00.755Z,12.25
2023-03-02T10:09:29.302Z,12.28
2023-03-02T10:12:27.548Z,12.57
2023-03-02T10:15:05.368Z,12.61
2023-03-02T10:17:51.972Z,13.02
2023-03-02T10:20:34.066Z,13.21
2023-03-02T10:23:28.454Z,13.81
2023-03-02T10:26:10.018Z,13.59
2023-03-02T10:28:46.731Z,14.00
2023-03-02T10:31:27.620Z,13.51
2023-03-02T10:33:56.613Z,13.93
2023-03-02T10:36:29.026Z,13.30
2023-03-02T10:39:00.537Z,13.78
2023-03-02T10:41:35.407Z,13.28
2023-03-02T10:44:17.079Z,13.51
2023-03-02T10:46:48.026Z,13.70
2023-03-02T10:49:28.912Z,13.37
2023-03-02T10:52:00.752Z,13.77
2023-03-02T10:54:30.403Z,13.69
2023-03-02T10:57:02.430Z,13.49
2023-03-02T10:59:43.644Z,14.16
2023-03-02T11:02:23.974Z,13.64
2023-03-02T11:04:58.437Z,14.02
2023-03-02T11:07:30.396Z,14.22
2023-03-02T11:10:04.960Z,14.25
2023-03-02T11:12:38.311Z,14.08
2023-03-02T11:15:27.902Z,14.03
2023-03-02T11:18:08.969Z,14.30
2023-03-02T11:20:43.423Z,14.78
2023-03-02T11:23:28.423Z,14.25
2023-03-02T11:26:03.177Z,14.26
2023-03-02T11:28:53.284Z,14.33
2023-03-02T11:31:36.665Z,14.41
2023-03-02T11:34:23.733Z,14.92
2023-03-02T11:37:05.238Z,15.45
2023-03-02T11:39:56.067Z,15.65
2023-03-02T11:42:31.037Z,15.62
2023-03-02T11:45:04.994Z,14.91
2023-03-02T11:47:35.258Z,14.74
2023-03-02T11:50:11.661Z,15.17
2023-03-02T11:52:46.367Z,15.40
2023-03-02T11:55:23.482Z,14.81
2023-03-02T11:57:56.500Z,14.90
2023-03-02T12:00:34.999Z,15.43
2023-03-02T12:03:07.301Z,15.56
2023-03-02T12:05:40.390Z,15.34
2023-03-02T12:08:36.106Z,15.69
2023-03-02T12:11:09.121Z,15.93
2023-03-02T12:13:40.577Z,15.77
2023-03-02T12:16:22.464Z,16.29
2023-03-02T12:18:52.082Z,16.45
2023-03-02T12:21:22.969Z,15.96
2023-03-02T12:24:06.429Z,15.83
2023-03-02T12:26:38.400Z,16.09
2023-03-02T12:29:24.472Z,16.31
2023-03-02T12:31:56.085Z,15.86
2023-03-02T12:34:38.925Z,16.37
2023-03-02T12:37:19.422Z,16.24
2023-03-02T12:40:40.349Z,16.00
2023-03-02T12:43:31.996Z,15.88
2023-03-02T12:46:30.514Z,15.71
2023-03-02T12:49:10.910Z,15.74
2023-03-02T12:51:52.501Z,16.29
2023-03-02T12:54:26.512Z,15.98
2023-03-02T12:57:08.990Z,16.31
2023-03-02T12:59:38.121Z,16.21
2023-03-02T13:02:19.079Z,16.26
2023-03-02T13:04:55.472Z,16.23
2023-03-02T13:07:29.128Z,17.02
2023-03-02T13:10:00.312Z,17.64
2023-03-02T13:12:31.305Z,16.88
2023-03-02T13:15:01.388Z,16.89
2023-03-02T13:17:32.760Z,16.61
2023-03-02T13:20:05.024Z,16.44
2023-03-02T13:22:33.953Z,16.83
2023-03-02T13:25:05.560Z,16.43
2023-03-02T13:27:36.311Z,16.51
2023-03-02T13:30:23.344Z,15.88
2023-03-02T13:32:52.091Z,16.34
2023-03-02T13:35:27.133Z,16.77
2023-03-02T13:38:05.692Z,16.58
2023-03-02T13:40:42.195Z,16.62
2023-03-02T13:43:36.908Z,16.08
2023-03-02T13:46:25.776Z,16.17
2023-03-02T13:49:09.616Z,16.64
2023-03-02T13:51:43.281Z,16.35
2023-03-02T13:54:23.514Z,15.98
2023-03-02T13:56:53.710Z,16.23
2023-03-02T13:59:24.373Z,17.01
2023-03-02T14:01:53.174Z,16.33
2023-03-02T14:04:27.312Z,16.77
2023-03-02T14:06:56.513Z,17.09
2023-03-02T14:09:27.271Z,16.78
2023-03-02T14:11:57.857Z,17.13
2023-03-02T14:14:31.460Z,16.90
2023-03-02T14:16:59.884Z,17.17
2023-03-02T14:19:28.538Z,16.29
2023-03-02T14:21:57.335Z,16.62
2023-03-02T14:24:25.791Z,16.32
2023-03-02T14:26:54.349Z,15.97
2023-03-02T14:29:28.093Z,16.27
2023-03-02T14:32:00.249Z,16.74
2023-03-02T14:34:28.972Z,17.01
2023-03-02T14:37:03.832Z,16.35
2023-03-02T14:39:40.213Z,16.65
2023-03-02T14:42:13.722Z,16.92
2023-03-02T14:44:45.904Z,16.90
2023-03-02T14:47:16.593Z,16.79
2023-03-02T14:49:45.346Z,16.48
2023-03-02T14:52:20.485Z,16.49
2023-03-02T14:54:54.120Z,15.92
2023-03-02T14:57:26.248Z,16.11
2023-03-02T14:59:59.861Z,16.01
2023-03-02T15:02:28.857Z,16.48
2023-03-02T15:04:57.851Z,15.88
2023-03-02T15:07:28.772Z,15.96
2023-03-02T15:09:58.409Z,15.59
2023-03-02T15:12:27.128Z,15.69
2023-03-02T15:14:56.964Z,14.63
2023-03-02T15:17:28.421Z,14.46
2023-03-02T15:19:56.861Z,14.88
2023-03-02T15:22:28.713Z,15.31
2023-03-02T15:24:57.425Z,15.03
2023-03-02T15:27:25.910Z,14.97
2023-03-02T15:29:56.689Z,14.50
2023-03-02T15:32:26.869Z,14.66
2023-03-02T15:34:55.863Z,14.17
2023-03-02T15:37:28.157Z,13.85
2023-03-02T15:39:56.940Z,13.70
2023-03-02T15:42:25.513Z,13.71
2023-03-02T15:44:54.038Z,13.16
2023-03-02T15:47:22.475Z,13.37
2023-03-02T15:49:52.356Z,13.62
2023-03-02T15:52:21.943Z,13.32
2023-03-02T15:54:50.447Z,13.07
2023-03-02T15:57:18.963Z,12.82
2023-03-02T15:59:47.939Z,12.67
2023-03-02T16:02:16.240Z,12.12
2023-03-02T16:04:44.893Z,11.97
2023-03-02T16:07:14.820Z,11.65
2023-03-02T16:09:45.354Z,11.31
2023-03-02T16:12:13.694Z,11.22
2023-03-02T16:14:42.178Z,11.04
2023-03-02T16:17:11.826Z,10.95
2023-03-02T16:19:40.181Z,10.63
2023-03-02T16:22:08.476Z,10.33
2023-03-02T16:24:40.350Z,10.26
2023-03-02T16:27:10.224Z,10.20
2023-03-02T16:29:38.618Z,10.12
2023-03-02T16:32:09.267Z,9.76
2023-03-02T16:34:37.945Z,9.40
2023-03-02T16:37:06.284Z,9.25
2023-03-02T16:39:34.742Z,9.01
2023-03-02T16:42:05.176Z,8.85
2023-03-02T16:44:33.498Z,8.74
2023-03-02T16:47:01.818Z,8.58
2023-03-02T16:49:30.282Z,8.40
2023-03-02T16:51:59.889Z,8.29
2023-03-02T16:54:28.916Z,8.23
2023-03-02T16:56:57.280Z,8.09
2023-03-02T16:59:27.052Z,8.01
2023-03-02T17:01:55.351Z,7.91
2023-03-02T17:04:23.708Z,7.82
2023-03-02T17:07:00.450Z,7.70
2023-03-02T17:09:29.491Z,7.55
2023-03-02T17:11:58.432Z,7.39
2023-03-02T17:14:28.940Z,7.33
2023-03-02T17:16:57.876Z,7.24
2023-03-02T17:19:27.073Z,7.18
2023-03-02T17:21:58.269Z,7.15
2023-03-02T17:24:27.077Z,7.05
2023-03-02T17:26:55.848Z,7.01
2023-03-02T17:29:24.722Z,6.95
2023-03-02T17:31:54.843Z,6.86
2023-03-02T17:34:23.505Z,6.78
2023-03-02T17:36:51.838Z,6.74
2023-03-02T17:39:20.637Z,6.65
2023-03-02T17:41:49.071Z,6.57
2023-03-02T17:44:17.733Z,6.47
2023-03-02T17:46:46.588Z,6.38
2023-03-02T17:49:16.209Z,6.41
2023-03-02T17:51:45.987Z,6.36
2023-03-02T17:54:14.280Z,6.32
2023-03-02T17:56:42.713Z,6.30
2023-03-02T17:59:12.499Z,6.24
2023-03-02T18:01:43.486Z,6.24
2023-03-02T18:04:11.997Z,6.19
2023-03-02T18:06:42.010Z,6.14
2023-03-02T18:09:11.086Z,6.08
2023-03-02T18:11:41.421Z,6.05
2023-03-02T18:14:13.609Z,6.05
2023-03-02T18:16:42.166Z,6.02
2023-03-02T18:19:10.722Z,6.03
2023-03-02T18:21:40.305Z,5.99
2023-03-02T18:24:10.993Z,5.99
2023-03-02T18:26:39.519Z,5.97
2023-03-02T18:29:08.535Z,6.05
2023-03-02T18:31:36.863Z,6.05
2023-03-02T18:34:05.743Z,5.95
2023-03-02T18:36:34.394Z,5.89
2023-03-02T18:39:04.020Z,5.82
2023-03-02T18:41:33.937Z,5.83
2023-03-02T18:44:03.616Z,5.77
2023-03-02T18:46:33.432Z,5.74
2023-03-02T18:49:01.801Z,5.72
2023-03-02T18:51:30.090Z,5.68
2023-03-02T18:53:58.509Z,5.66
2023-03-02T18:56:27.613Z,5.67
2023-03-02T18:58:57.648Z,5.68
2023-03-02T19:01:25.969Z,5.70
2023-03-02T19:03:56.870Z,5.73
2023-03-02T19:06:25.180Z,5.68
2023-03-02T19:08:53.812Z,5.64
2023-03-02T19:11:23.109Z,5.66
2023-03-02T19:13:55.114Z,5.61
2023-03-02T19:16:24.892Z,5.56
2023-03-02T19:18:53.243Z,5.57
2023-03-02T19:21:21.747Z,5.59
2023-03-02T19:23:50.019Z,5.60
2023-03-02T19:26:18.391Z,5.62
2023-03-02T19:28:47.066Z,5.64
2023-03-02T19:31:15.961Z,5.71
2023-03-02T19:33:46.185Z,5.79
2023-03-02T19:36:15.187Z,5.85
2023-03-02T19:38:44.584Z,5.84
2023-03-02T19:41:16.641Z,5.89
2023-03-02T19:43:46.285Z,5.90
2023-03-02T19:46:15.589Z,5.89
2023-03-02T19:48:45.688Z,5.90
2023-03-02T19:51:15.854Z,5.92
2023-03-02T19:53:45.958Z,5.88
2023-03-02T19:56:16.211Z,5.84
2023-03-02T19:58:50.010Z,5.82
2023-03-02T20:01:24.843Z,5.76
2023-03-02T20:03:56.082Z,5.60
2023-03-02T20:06:30.504Z,5.47
2023-03-02T20:09:00.654Z,5.45
2023-03-02T20:11:30.846Z,5.42
2023-03-02T20:14:02.146Z,5.35
2023-03-02T20:16:31.381Z,5.17
2023-03-02T20:19:03.339Z,5.12
2023-03-02T20:21:32.850Z,5.00
2023-03-02T20:24:03.177Z,4.99
2023-03-02T20:26:32.040Z,5.03
2023-03-02T20:29:04.963Z,5.11
2023-03-02T20:31:35.265Z,5.20
2023-03-02T20:34:08.898Z,5.30
2023-03-02T20:36:38.510Z,5.44
2023-03-02T20:39:13.273Z,5.54
2023-03-02T20:41:43.197Z,5.45
2023-03-02T20:44:14.800Z,5.46
2023-03-02T20:46:49.595Z,5.43
2023-03-02T20:49:19.573Z,5.41
2023-03-02T20:51:54.801Z,5.40
2023-03-02T20:54:30.160Z,5.39
2023-03-02T20:56:59.369Z,5.38
2023-03-02T20:59:28.665Z,5.50
2023-03-02T21:01:57.580Z,5.52
2023-03-02T21:04:27.927Z,5.48
2023-03-02T21:06:56.279Z,5.44
2023-03-02T21:09:24.964Z,5.45
2023-03-02T21:11:53.616Z,5.37
2023-03-02T21:14:22.271Z,5.24
2023-03-02T21:16:50.583Z,5.14
2023-03-02T21:19:20.222Z,5.22
2023-03-02T21:21:49.906Z,5.25
2023-03-02T21:24:20.719Z,5.17
2023-03-02T21:26:53.000Z,4.96
2023-03-02T21:29:24.578Z,4.76
2023-03-02T21:31:52.988Z,4.53
2023-03-02T21:34:22.682Z,4.44
2023-03-02T21:36:53.985Z,4.38
2023-03-02T21:39:23.912Z,4.28
2023-03-02T21:41:52.962Z,4.21
2023-03-02T21:44:21.711Z,4.11
2023-03-02T21:46:50.838Z,4.07
2023-03-02T21:49:21.992Z,4.07
2023-03-02T21:51:51.870Z,4.08
2023-03-02T21:54:20.257Z,4.02
2023-03-02T21:56:48.655Z,3.86
2023-03-02T21:59:17.455Z,3.69
2023-03-02T22:01:45.941Z,3.62
2023-03-02T22:04:14.575Z,3.57
2023-03-02T22:06:42.940Z,3.54
2023-03-02T22:09:13.263Z,3.48
2023-03-02T22:11:41.544Z,3.48
2023-03-02T22:14:15.548Z,3.51
2023-03-02T22:16:47.933Z,3.67
2023-03-02T22:19:27.683Z,3.92
2023-03-02T22:21:57.692Z,4.06
2023-03-02T22:24:29.945Z,4.15
2023-03-02T22:27:10.461Z,4.25
2023-03-02T22:29:44.804Z,4.06
2023-03-02T22:32:19.868Z,3.93
2023-03-02T22:34:54.325Z,3.86
2023-03-02T22:37:25.815Z,3.84
2023-03-02T22:39:58.861Z,3.85
2023-03-02T22:42:31.257Z,3.91
2023-03-02T22:45:12.991Z,3.83
2023-03-02T22:47:41.725Z,3.92
2023-03-02T22:50:23.704Z,3.99
2023-03-02T22:52:53.791Z,3.83
2023-03-02T22:55:39.068Z,3.72
2023-03-02T22:58:42.629Z,3.75
2023-03-02T23:01:22.980Z,3.82
2023-03-02T23:03:54.499Z,3.86
2023-03-02T23:06:31.779Z,3.75
2023-03-02T23:09:03.073Z,3.56
2023-03-02T23:11:38.734Z,3.48
2023-03-02T23:14:23.001Z,3.41
2023-03-02T23:16:59.016Z,3.54
2023-03-02T23:19:30.518Z,3.59
2023-03-02T23:21:59.743Z,3.70
2023-03-02T23:24:28.183Z,3.59
2023-03-02T23:27:02.004Z,3.39
2023-03-02T23:29:30.643Z,3.39
2023-03-02T23:31:59.766Z,3.30
2023-03-02T23:34:31.132Z,3.33
2023-03-02T23:36:59.921Z,3.40
2023-03-02T23:39:29.026Z,3.29
2023-03-02T23:42:00.303Z,3.27
2023-03-02T23:44:29.021Z,3.35
2023-03-02T23:46:57.539Z,3.31
2023-03-02T23:49:25.926Z,3.23
2023-03-02T23:51:54.370Z,3.20
2023-03-02T23:54:23.877Z,3.06
2023-03-02T23:56:52.213Z,2.88
2023-03-02T23:59:21.902Z,2.62
